createdAt,value
2018-01-16T00:01:24.959Z,98546.45
2018-01-16T00:06:26.273Z,98542.78
2018-01-16T00:11:27.586Z,98552.70
2018-01-16T00:16:29.844Z,98562.22
2018-01-16T00:21:31.210Z,98563.00
2018-01-16T00:26:32.539Z,98567.05
2018-01-16T00:31:33.911Z,98565.75
2018-01-16T00:36:35.266Z,98560.84
2018-01-16T00:41:37.423Z,98564.52
2018-01-16T00:46:38.722Z,98556.87
2018-01-16T00:51:40.063Z,98558.72
2018-01-16T00:56:41.383Z,98572.07
2018-01-16T01:01:42.711Z,98570.86
2018-01-16T01:06:44.026Z,98581.16
2018-01-16T01:11:45.336Z,98569.66
2018-01-16T01:16:46.723Z,98578.65
2018-01-16T01:21:48.048Z,98582.70
2018-01-16T01:26:49.407Z,98589.30
2018-01-16T01:31:50.758Z,98595.94
2018-01-16T01:36:53.067Z,98598.36
2018-01-16T01:41:54.400Z,98598.98
2018-01-16T01:46:55.815Z,98608.51
2018-01-16T01:51:57.145Z,98600.97
2018-01-16T01:56:59.195Z,98606.51
2018-01-16T02:02:00.593Z,98624.53
2018-01-16T02:07:01.919Z,98609.97
2018-01-16T02:12:03.239Z,98631.44
2018-01-16T02:17:04.576Z,98629.11
2018-01-16T02:22:05.909Z,98628.15
2018-01-16T02:27:07.950Z,98625.26
2018-01-16T02:32:09.286Z,98642.78
2018-01-16T02:37:10.589Z,98624.46
2018-01-16T02:42:11.953Z,98637.15
2018-01-16T02:47:13.332Z,98640.00
2018-01-16T02:52:14.699Z,98628.91
2018-01-16T02:57:16.026Z,98613.61
2018-01-16T03:02:17.331Z,98599.50
2018-01-16T03:07:19.411Z,98599.67
2018-01-16T03:12:20.744Z,98590.34
2018-01-16T03:17:22.136Z,98577.71
2018-01-16T03:22:23.463Z,98575.94
2018-01-16T03:27:24.798Z,98578.88
2018-01-16T03:32:26.841Z,98571.15
2018-01-16T03:37:28.204Z,98564.09
2018-01-16T03:42:30.282Z,98555.90
2018-01-16T03:47:31.574Z,98555.06
2018-01-16T03:52:32.899Z,98556.59
2018-01-16T03:57:34.194Z,98552.59
2018-01-16T04:02:35.522Z,98571.89
2018-01-16T04:07:36.831Z,98562.70
2018-01-16T04:12:38.182Z,98546.85
2018-01-16T04:17:39.487Z,98530.38
2018-01-16T04:22:40.803Z,98529.93
2018-01-16T04:27:42.102Z,98511.84
2018-01-16T04:32:44.147Z,98502.41
2018-01-16T04:37:45.472Z,98498.86
2018-01-16T04:42:46.794Z,98494.26
2018-01-16T04:47:48.846Z,98501.99
2018-01-16T04:52:50.148Z,98568.91
2018-01-16T04:57:51.519Z,98531.75
2018-01-16T05:02:52.851Z,98512.69
2018-01-16T05:07:54.167Z,98536.75
2018-01-16T05:12:55.548Z,98529.84
2018-01-16T05:17:56.851Z,98481.12
2018-01-16T05:22:58.207Z,98475.32
2018-01-16T05:27:59.502Z,98464.94
2018-01-16T05:33:01.584Z,98463.66
2018-01-16T05:38:02.929Z,98473.31
2018-01-16T05:43:11.071Z,98483.03
2018-01-16T05:48:12.472Z,98466.05
2018-01-16T05:53:13.779Z,98455.35
2018-01-16T05:58:15.255Z,98446.17
2018-01-16T06:03:16.583Z,98449.48
2018-01-16T06:08:17.890Z,98448.80
2018-01-16T06:13:19.226Z,98463.86
2018-01-16T06:18:20.552Z,98472.89
2018-01-16T06:23:21.882Z,98483.36
2018-01-16T06:28:23.216Z,98490.56
2018-01-16T06:33:24.581Z,98491.13
2018-01-16T06:38:25.906Z,98502.60
2018-01-16T06:43:34.341Z,98517.55
2018-01-16T06:48:35.684Z,98500.00
2018-01-16T06:53:37.037Z,98526.32
2018-01-16T06:58:38.354Z,98540.73
2018-01-16T07:03:39.671Z,98527.52
2018-01-16T07:08:40.968Z,98528.51
2018-01-16T07:13:42.262Z,98542.27
2018-01-16T07:18:43.587Z,98526.80
2018-01-16T07:23:44.888Z,98518.44
2018-01-16T07:28:46.202Z,98511.70
2018-01-16T07:33:47.506Z,98528.87
2018-01-16T07:38:48.813Z,98516.08
2018-01-16T07:43:57.063Z,98509.34
2018-01-16T07:48:58.372Z,98498.85
2018-01-16T07:53:59.690Z,98518.72
2018-01-16T07:59:01.000Z,98529.21
2018-01-16T08:04:02.322Z,98512.02
2018-01-16T08:09:03.686Z,98511.78
2018-01-16T08:14:05.010Z,98496.43
2018-01-16T08:19:06.361Z,98506.63
2018-01-16T08:24:08.422Z,98497.05
2018-01-16T08:29:09.747Z,98491.87
2018-01-16T08:34:11.794Z,98500.09
2018-01-16T08:39:13.111Z,98497.51
2018-01-16T08:44:14.437Z,98484.93
2018-01-16T08:49:16.487Z,98485.20
2018-01-16T08:54:17.802Z,98481.46
2018-01-16T08:59:19.094Z,98482.44
2018-01-16T09:04:20.421Z,98472.17
2018-01-16T09:09:21.713Z,98472.30
2018-01-16T09:14:23.034Z,98455.28
2018-01-16T09:19:24.388Z,98446.84
2018-01-16T09:24:25.722Z,98453.94
2018-01-16T09:29:27.007Z,98455.44
2018-01-16T09:34:28.383Z,98457.62
2018-01-16T09:39:29.686Z,98453.22
2018-01-16T09:44:30.996Z,98455.31
2018-01-16T09:49:32.302Z,98454.93
2018-01-16T09:54:34.364Z,98458.12
2018-01-16T09:59:35.679Z,98469.83
2018-01-16T10:04:36.978Z,98488.07
2018-01-16T10:09:38.299Z,98482.28
2018-01-16T10:14:39.615Z,98473.07
2018-01-16T10:19:40.919Z,98483.28
2018-01-16T10:24:42.239Z,98474.05
2018-01-16T10:29:43.570Z,98457.07
2018-01-16T10:34:44.862Z,98452.13
2018-01-16T10:39:46.178Z,98460.95
2018-01-16T10:44:47.491Z,98453.13
2018-01-16T10:49:49.686Z,98445.51
2018-01-16T10:54:51.002Z,98443.70
2018-01-16T10:59:53.035Z,98449.95
2018-01-16T11:04:54.334Z,98459.65
2018-01-16T11:09:55.664Z,98458.49
2018-01-16T11:14:56.996Z,98475.27
2018-01-16T11:19:58.311Z,98476.34
2018-01-16T11:24:59.611Z,98469.28
2018-01-16T11:30:00.948Z,98475.15
2018-01-16T11:35:03.054Z,98473.00
2018-01-16T11:40:05.119Z,98470.13
2018-01-16T11:45:06.455Z,98493.84
2018-01-16T11:50:07.781Z,98484.73
2018-01-16T11:55:09.161Z,98474.67
2018-01-16T12:00:10.454Z,98477.47
2018-01-16T12:05:11.790Z,98482.86
2018-01-16T12:10:13.086Z,98478.88
2018-01-16T12:15:15.151Z,98480.69
2018-01-16T12:20:16.460Z,98488.20
2018-01-16T12:25:17.779Z,98491.77
2018-01-16T12:30:19.872Z,98499.61
2018-01-16T12:35:21.937Z,98525.86
2018-01-16T12:40:23.236Z,98517.23
2018-01-16T12:45:24.551Z,98541.83
2018-01-16T12:50:25.857Z,98542.10
2018-01-16T12:55:27.956Z,98543.84
2018-01-16T13:00:30.076Z,98536.42
2018-01-16T13:05:32.695Z,98537.34
2018-01-16T13:10:34.237Z,98545.81
2018-01-16T13:15:36.386Z,98545.63
2018-01-16T13:20:37.991Z,98547.78
2018-01-16T13:25:39.730Z,98557.62
2018-01-16T13:30:41.792Z,98553.33
2018-01-16T13:35:43.416Z,98564.65
2018-01-16T13:40:44.894Z,98581.33
2018-01-16T13:45:46.299Z,98580.72
2018-01-16T13:50:48.624Z,98586.24
2018-01-16T13:55:50.387Z,98586.94
2018-01-16T14:00:51.761Z,98595.95
2018-01-16T14:05:53.854Z,98592.88
2018-01-16T14:10:55.162Z,98596.23
2018-01-16T14:15:58.979Z,98608.95
2018-01-16T14:21:00.369Z,98601.73
2018-01-16T14:26:01.691Z,98608.59
2018-01-16T14:31:03.756Z,98617.16
2018-01-16T14:36:05.118Z,98631.77
2018-01-16T14:41:06.444Z,98628.58
2018-01-16T14:46:07.805Z,98598.40
2018-01-16T14:51:09.649Z,98633.30
2018-01-16T14:56:11.040Z,98644.25
2018-01-16T15:01:12.541Z,98631.34
2018-01-16T15:06:13.911Z,98644.16
2018-01-16T15:11:15.669Z,98657.20
2018-01-16T15:16:16.983Z,98643.73
2018-01-16T15:21:18.362Z,98669.40
2018-01-16T15:26:19.718Z,98685.69
2018-01-16T15:31:21.812Z,98683.08
2018-01-16T15:36:23.859Z,98705.13
2018-01-16T15:41:25.205Z,98707.27
2018-01-16T15:46:26.543Z,98709.36
2018-01-16T15:51:27.859Z,98724.16
2018-01-16T15:56:29.171Z,98728.67
2018-01-16T16:01:30.533Z,98743.02
2018-01-16T16:06:31.871Z,98737.08
2018-01-16T16:11:33.947Z,98731.10
2018-01-16T16:16:35.284Z,98740.62
2018-01-16T16:21:36.587Z,98737.02
2018-01-16T16:26:37.936Z,98735.05
2018-01-16T16:31:39.979Z,98737.53
2018-01-16T16:36:41.319Z,98738.95
2018-01-16T16:41:42.627Z,98742.98
2018-01-16T16:46:51.556Z,98739.81
2018-01-16T16:51:52.867Z,98739.67
2018-01-16T16:56:54.185Z,98746.14
2018-01-16T17:01:55.478Z,98736.92
2018-01-16T17:06:56.783Z,98741.30
2018-01-16T17:11:58.158Z,98736.24
2018-01-16T17:16:59.482Z,98736.78
2018-01-16T17:22:00.832Z,98745.55
2018-01-16T17:27:02.211Z,98774.07
2018-01-16T17:32:04.299Z,98753.50
2018-01-16T17:37:05.658Z,98748.77
2018-01-16T17:42:07.056Z,98758.91
2018-01-16T17:47:08.401Z,98737.88
2018-01-16T17:52:09.731Z,98723.04
2018-01-16T17:57:11.060Z,98728.29
2018-01-16T18:02:13.133Z,98718.72
2018-01-16T18:07:14.451Z,98715.65
2018-01-16T18:12:16.558Z,98719.66
2018-01-16T18:17:17.868Z,98722.11
2018-01-16T18:22:19.278Z,98720.26
2018-01-16T18:27:20.651Z,98725.85
2018-01-16T18:32:22.018Z,98719.22
2018-01-16T18:37:23.323Z,98727.19
2018-01-16T18:42:25.442Z,98737.92
2018-01-16T18:47:26.744Z,98727.98
2018-01-16T18:52:28.732Z,98728.70
2018-01-16T18:57:30.100Z,98727.16
2018-01-16T19:02:32.234Z,98735.32
2018-01-16T19:07:33.619Z,98746.03
2018-01-16T19:12:34.930Z,98739.46
2018-01-16T19:17:36.248Z,98741.84
2018-01-16T19:22:37.555Z,98747.80
2018-01-16T19:27:38.868Z,98739.45
2018-01-16T19:32:41.996Z,98743.19
2018-01-16T19:37:43.388Z,98740.70
2018-01-16T19:42:44.798Z,98750.25
2018-01-16T19:47:46.827Z,98750.47
2018-01-16T19:52:49.817Z,98750.55
2018-01-16T19:57:51.194Z,98731.66
2018-01-16T20:02:53.319Z,98717.88
2018-01-16T20:07:54.674Z,98737.17
2018-01-16T20:12:55.982Z,98737.87
2018-01-16T20:17:58.059Z,98736.15
2018-01-16T20:22:59.432Z,98727.55
2018-01-16T20:28:00.765Z,98722.33
2018-01-16T20:33:02.085Z,98729.77
2018-01-16T20:38:03.414Z,98726.30
2018-01-16T20:43:04.760Z,98728.37
2018-01-16T20:48:06.092Z,98730.61
2018-01-16T20:53:07.413Z,98724.28
2018-01-16T20:58:09.496Z,98725.20
2018-01-16T21:03:10.884Z,98728.86
2018-01-16T21:08:12.249Z,98724.05
2018-01-16T21:13:13.640Z,98725.30
2018-01-16T21:18:15.540Z,98730.31
2018-01-16T21:23:17.459Z,98726.80
2018-01-16T21:28:19.451Z,98734.08
2018-01-16T21:33:20.783Z,98730.49
2018-01-16T21:38:22.128Z,98741.80
2018-01-16T21:43:23.447Z,98736.83
2018-01-16T21:48:24.781Z,98731.92
2018-01-16T21:53:26.115Z,98724.80
2018-01-16T21:58:27.443Z,98729.31
2018-01-16T22:03:29.503Z,98729.63
2018-01-16T22:08:30.855Z,98737.69
2018-01-16T22:13:32.174Z,98729.67
2018-01-16T22:18:33.550Z,98725.80
2018-01-16T22:23:34.869Z,98733.29
2018-01-16T22:28:36.231Z,98728.53
2018-01-16T22:33:37.565Z,98729.66
2018-01-16T22:38:38.883Z,98729.60
2018-01-16T22:43:40.967Z,98723.70
2018-01-16T22:48:42.318Z,98724.80
2018-01-16T22:53:43.642Z,98723.86
2018-01-16T22:58:44.951Z,98721.83
2018-01-16T23:03:47.052Z,98714.77
2018-01-16T23:08:49.153Z,98711.17
2018-01-16T23:13:50.471Z,98712.05
2018-01-16T23:18:51.840Z,98716.55
2018-01-16T23:23:53.938Z,98717.46
2018-01-16T23:29:00.820Z,98709.94
2018-01-16T23:34:02.156Z,98699.14
2018-01-16T23:39:04.828Z,98697.72
2018-01-16T23:44:06.155Z,98691.69
2018-01-16T23:49:07.502Z,98688.13
2018-01-16T23:54:08.893Z,98676.66
2018-01-16T23:59:10.207Z,98668.70
